sensor_id;sensor_type;location;lat;lon;timestamp;temperature;humidity
9365;DHT22;4722;49.340;9.800;2022-07-05T00:51:07;14.10;99.90
9365;DHT22;4722;49.340;9.800;2022-07-05T03:48:51;13.30;99.90
9365;DHT22;4722;49.340;9.800;2022-07-05T04:52:09;13.70;99.90
9365;DHT22;4722;49.340;9.800;2022-07-05T06:20:27;18.60;99.90
9365;DHT22;4722;49.340;9.800;2022-07-05T06:25:20;19.70;99.90
9365;DHT22;4722;49.340;9.800;2022-07-05T06:27:48;19.90;99.90
9365;DHT22;4722;49.340;9.800;2022-07-05T06:30:18;20.50;99.90
9365;DHT22;4722;49.340;9.800;2022-07-05T06:32:45;21.20;99.90
9365;DHT22;4722;49.340;9.800;2022-07-05T06:35:10;21.70;99.90
9365;DHT22;4722;49.340;9.800;2022-07-05T06:37:40;18.70;97.10
9365;DHT22;4722;49.340;9.800;2022-07-05T06:40:05;23.80;94.40
9365;DHT22;4722;49.340;9.800;2022-07-05T06:42:31;26.40;92.30
9365;DHT22;4722;49.340;9.800;2022-07-05T06:44:56;26.90;87.00
9365;DHT22;4722;49.340;9.800;2022-07-05T06:47:22;29.00;79.20
9365;DHT22;4722;49.340;9.800;2022-07-05T06:49:47;30.20;71.20
9365;DHT22;4722;49.340;9.800;2022-07-05T06:52:13;32.50;56.10
9365;DHT22;4722;49.340;9.800;2022-07-05T06:54:38;33.10;54.10
9365;DHT22;4722;49.340;9.800;2022-07-05T06:57:03;34.30;47.40
9365;DHT22;4722;49.340;9.800;2022-07-05T06:59:30;34.30;45.30
9365;DHT22;4722;49.340;9.800;2022-07-05T07:01:56;35.00;44.20
9365;DHT22;4722;49.340;9.800;2022-07-05T07:04:21;35.30;42.50
9365;DHT22;4722;49.340;9.800;2022-07-05T07:06:46;35.60;43.00
9365;DHT22;4722;49.340;9.800;2022-07-05T07:09:12;35.80;41.10
9365;DHT22;4722;49.340;9.800;2022-07-05T07:11:44;35.30;39.30
9365;DHT22;4722;49.340;9.800;2022-07-05T07:14:10;34.70;41.00
9365;DHT22;4722;49.340;9.800;2022-07-05T07:16:35;35.20;40.30
9365;DHT22;4722;49.340;9.800;2022-07-05T07:19:01;34.00;39.80
9365;DHT22;4722;49.340;9.800;2022-07-05T07:21:26;33.90;40.60
9365;DHT22;4722;49.340;9.800;2022-07-05T07:23:52;33.70;42.10
9365;DHT22;4722;49.340;9.800;2022-07-05T07:26:17;33.00;39.50
9365;DHT22;4722;49.340;9.800;2022-07-05T07:28:43;32.60;40.90
9365;DHT22;4722;49.340;9.800;2022-07-05T07:31:08;32.20;44.00
9365;DHT22;4722;49.340;9.800;2022-07-05T07:33:34;31.90;44.40
9365;DHT22;4722;49.340;9.800;2022-07-05T07:35:59;32.30;41.90
9365;DHT22;4722;49.340;9.800;2022-07-05T07:38:25;32.50;40.70
9365;DHT22;4722;49.340;9.800;2022-07-05T07:40:51;33.10;41.20
9365;DHT22;4722;49.340;9.800;2022-07-05T07:43:17;33.70;40.90
9365;DHT22;4722;49.340;9.800;2022-07-05T07:45:42;33.60;38.50
9365;DHT22;4722;49.340;9.800;2022-07-05T07:48:08;33.20;39.10
9365;DHT22;4722;49.340;9.800;2022-07-05T07:52:59;32.60;40.60
9365;DHT22;4722;49.340;9.800;2022-07-05T07:55:25;32.20;42.30
9365;DHT22;4722;49.340;9.800;2022-07-05T08:00:16;32.90;39.70
9365;DHT22;4722;49.340;9.800;2022-07-05T08:05:08;33.50;38.80
9365;DHT22;4722;49.340;9.800;2022-07-05T08:07:35;33.60;40.60
9365;DHT22;4722;49.340;9.800;2022-07-05T08:10:00;32.90;39.90
9365;DHT22;4722;49.340;9.800;2022-07-05T08:12:25;32.40;41.30
9365;DHT22;4722;49.340;9.800;2022-07-05T08:14:51;31.50;41.10
9365;DHT22;4722;49.340;9.800;2022-07-05T08:17:16;32.00;41.50
9365;DHT22;4722;49.340;9.800;2022-07-05T08:19:46;31.40;42.80
9365;DHT22;4722;49.340;9.800;2022-07-05T08:22:30;31.10;43.90
9365;DHT22;4722;49.340;9.800;2022-07-05T08:24:55;30.10;44.70
9365;DHT22;4722;49.340;9.800;2022-07-05T08:27:21;31.00;45.50
9365;DHT22;4722;49.340;9.800;2022-07-05T08:32:12;31.40;43.70
9365;DHT22;4722;49.340;9.800;2022-07-05T08:34:38;30.90;45.40
9365;DHT22;4722;49.340;9.800;2022-07-05T08:37:04;29.60;44.80
9365;DHT22;4722;49.340;9.800;2022-07-05T08:39:29;30.50;44.20
9365;DHT22;4722;49.340;9.800;2022-07-05T08:44:21;31.70;42.90
9365;DHT22;4722;49.340;9.800;2022-07-05T08:46:48;32.50;39.90
9365;DHT22;4722;49.340;9.800;2022-07-05T08:49:14;33.90;38.60
9365;DHT22;4722;49.340;9.800;2022-07-05T08:51:40;35.50;35.70
9365;DHT22;4722;49.340;9.800;2022-07-05T08:54:06;36.10;34.70
9365;DHT22;4722;49.340;9.800;2022-07-05T08:56:33;35.60;34.60
9365;DHT22;4722;49.340;9.800;2022-07-05T08:58:59;36.10;32.50
9365;DHT22;4722;49.340;9.800;2022-07-05T09:01:25;37.20;33.70
9365;DHT22;4722;49.340;9.800;2022-07-05T09:03:51;36.80;34.40
9365;DHT22;4722;49.340;9.800;2022-07-05T09:06:20;36.40;31.70
9365;DHT22;4722;49.340;9.800;2022-07-05T09:08:47;37.30;31.40
9365;DHT22;4722;49.340;9.800;2022-07-05T09:11:14;37.70;31.80
9365;DHT22;4722;49.340;9.800;2022-07-05T09:13:41;38.00;32.90
9365;DHT22;4722;49.340;9.800;2022-07-05T09:16:07;38.20;32.20
9365;DHT22;4722;49.340;9.800;2022-07-05T09:21:14;39.90;29.20
9365;DHT22;4722;49.340;9.800;2022-07-05T09:23:39;39.90;29.90
9365;DHT22;4722;49.340;9.800;2022-07-05T09:26:05;39.00;28.60
9365;DHT22;4722;49.340;9.800;2022-07-05T09:28:30;38.50;30.40
9365;DHT22;4722;49.340;9.800;2022-07-05T09:30:56;36.20;32.20
9365;DHT22;4722;49.340;9.800;2022-07-05T09:38:16;31.00;38.60
9365;DHT22;4722;49.340;9.800;2022-07-05T09:40:46;30.60;41.80
9365;DHT22;4722;49.340;9.800;2022-07-05T09:43:13;28.50;41.00
9365;DHT22;4722;49.340;9.800;2022-07-05T09:48:08;27.80;44.80
9365;DHT22;4722;49.340;9.800;2022-07-05T09:50:34;28.30;47.30
9365;DHT22;4722;49.340;9.800;2022-07-05T09:53:00;28.90;47.40
9365;DHT22;4722;49.340;9.800;2022-07-05T09:57:51;28.40;42.50
9365;DHT22;4722;49.340;9.800;2022-07-05T10:00:19;28.20;44.80
9365;DHT22;4722;49.340;9.800;2022-07-05T10:02:56;27.80;44.70
9365;DHT22;4722;49.340;9.800;2022-07-05T10:12:45;26.80;48.00
9365;DHT22;4722;49.340;9.800;2022-07-05T10:17:38;27.40;50.10
9365;DHT22;4722;49.340;9.800;2022-07-05T10:22:30;28.10;46.20
9365;DHT22;4722;49.340;9.800;2022-07-05T10:24:56;28.00;46.10
9365;DHT22;4722;49.340;9.800;2022-07-05T10:27:25;28.00;45.70
9365;DHT22;4722;49.340;9.800;2022-07-05T10:29:52;27.60;45.70
9365;DHT22;4722;49.340;9.800;2022-07-05T10:32:17;27.10;46.00
9365;DHT22;4722;49.340;9.800;2022-07-05T10:37:11;26.60;48.50
9365;DHT22;4722;49.340;9.800;2022-07-05T10:39:37;26.70;49.50
9365;DHT22;4722;49.340;9.800;2022-07-05T10:49:20;26.20;49.10
9365;DHT22;4722;49.340;9.800;2022-07-05T10:51:46;26.20;51.60
9365;DHT22;4722;49.340;9.800;2022-07-05T10:54:12;26.30;47.80
9365;DHT22;4722;49.340;9.800;2022-07-05T10:56:37;26.50;48.10
9365;DHT22;4722;49.340;9.800;2022-07-05T10:59:04;27.20;48.90
9365;DHT22;4722;49.340;9.800;2022-07-05T11:01:30;27.10;47.60
9365;DHT22;4722;49.340;9.800;2022-07-05T11:11:30;28.10;44.90
9365;DHT22;4722;49.340;9.800;2022-07-05T11:13:56;27.80;45.20
9365;DHT22;4722;49.340;9.800;2022-07-05T11:16:24;27.80;45.00
9365;DHT22;4722;49.340;9.800;2022-07-05T11:18:51;27.30;46.20
9365;DHT22;4722;49.340;9.800;2022-07-05T11:21:20;27.60;45.20
9365;DHT22;4722;49.340;9.800;2022-07-05T11:26:12;27.60;45.60
9365;DHT22;4722;49.340;9.800;2022-07-05T11:28:42;28.50;46.50
9365;DHT22;4722;49.340;9.800;2022-07-05T11:31:09;27.70;44.50
9365;DHT22;4722;49.340;9.800;2022-07-05T11:33:36;28.10;47.70
9365;DHT22;4722;49.340;9.800;2022-07-05T11:36:02;28.30;46.30
9365;DHT22;4722;49.340;9.800;2022-07-05T11:41:09;27.50;48.10
9365;DHT22;4722;49.340;9.800;2022-07-05T11:43:35;27.40;46.30
9365;DHT22;4722;49.340;9.800;2022-07-05T11:48:28;27.40;47.70
9365;DHT22;4722;49.340;9.800;2022-07-05T11:50:54;27.50;47.30
9365;DHT22;4722;49.340;9.800;2022-07-05T11:53:29;27.70;49.10
9365;DHT22;4722;49.340;9.800;2022-07-05T11:58:22;28.40;44.70
9365;DHT22;4722;49.340;9.800;2022-07-05T12:00:52;27.40;45.60
9365;DHT22;4722;49.340;9.800;2022-07-05T12:03:18;28.50;48.80
9365;DHT22;4722;49.340;9.800;2022-07-05T12:05:44;27.70;47.10
9365;DHT22;4722;49.340;9.800;2022-07-05T12:08:09;27.60;44.70
9365;DHT22;4722;49.340;9.800;2022-07-05T12:10:35;28.10;44.70
9365;DHT22;4722;49.340;9.800;2022-07-05T12:13:19;28.80;47.10
9365;DHT22;4722;49.340;9.800;2022-07-05T12:15:45;27.80;43.50
9365;DHT22;4722;49.340;9.800;2022-07-05T12:18:11;28.90;45.70
9365;DHT22;4722;49.340;9.800;2022-07-05T12:20:37;28.00;44.40
9365;DHT22;4722;49.340;9.800;2022-07-05T12:23:03;28.40;46.70
9365;DHT22;4722;49.340;9.800;2022-07-05T12:25:30;29.40;45.50
9365;DHT22;4722;49.340;9.800;2022-07-05T12:27:56;29.50;42.90
9365;DHT22;4722;49.340;9.800;2022-07-05T12:30:22;28.70;42.40
9365;DHT22;4722;49.340;9.800;2022-07-05T12:32:55;29.80;42.70
9365;DHT22;4722;49.340;9.800;2022-07-05T12:38:07;30.40;43.30
9365;DHT22;4722;49.340;9.800;2022-07-05T12:40:33;29.20;41.20
9365;DHT22;4722;49.340;9.800;2022-07-05T12:43:02;24.50;39.60
9365;DHT22;4722;49.340;9.800;2022-07-05T12:45:28;30.00;43.00
9365;DHT22;4722;49.340;9.800;2022-07-05T12:47:54;29.90;43.00
9365;DHT22;4722;49.340;9.800;2022-07-05T12:50:21;29.70;45.70
9365;DHT22;4722;49.340;9.800;2022-07-05T12:53:00;30.00;44.90
9365;DHT22;4722;49.340;9.800;2022-07-05T12:55:36;29.40;45.80
9365;DHT22;4722;49.340;9.800;2022-07-05T12:58:20;28.80;42.60
9365;DHT22;4722;49.340;9.800;2022-07-05T13:00:45;27.80;44.40
9365;DHT22;4722;49.340;9.800;2022-07-05T13:03:11;23.50;42.50
9365;DHT22;4722;49.340;9.800;2022-07-05T13:05:36;28.50;46.60
9365;DHT22;4722;49.340;9.800;2022-07-05T13:08:02;28.50;47.00
9365;DHT22;4722;49.340;9.800;2022-07-05T13:10:27;28.60;46.50
9365;DHT22;4722;49.340;9.800;2022-07-05T13:12:57;27.60;45.50
9365;DHT22;4722;49.340;9.800;2022-07-05T13:17:49;28.40;45.50
9365;DHT22;4722;49.340;9.800;2022-07-05T13:20:15;27.90;46.90
9365;DHT22;4722;49.340;9.800;2022-07-05T13:22:43;28.40;43.90
9365;DHT22;4722;49.340;9.800;2022-07-05T13:25:08;28.10;46.60
9365;DHT22;4722;49.340;9.800;2022-07-05T13:27:35;28.20;45.40
9365;DHT22;4722;49.340;9.800;2022-07-05T13:30:01;28.40;44.20
9365;DHT22;4722;49.340;9.800;2022-07-05T13:32:27;29.20;45.30
9365;DHT22;4722;49.340;9.800;2022-07-05T13:34:52;28.30;42.70
9365;DHT22;4722;49.340;9.800;2022-07-05T13:37:18;28.40;42.40
9365;DHT22;4722;49.340;9.800;2022-07-05T13:39:43;28.60;43.90
9365;DHT22;4722;49.340;9.800;2022-07-05T13:42:09;28.80;42.70
9365;DHT22;4722;49.340;9.800;2022-07-05T13:44:34;28.50;43.90
9365;DHT22;4722;49.340;9.800;2022-07-05T13:47:00;28.80;42.70
9365;DHT22;4722;49.340;9.800;2022-07-05T13:49:25;29.20;44.60
9365;DHT22;4722;49.340;9.800;2022-07-05T13:51:51;28.70;42.90
9365;DHT22;4722;49.340;9.800;2022-07-05T13:54:16;28.50;43.20
9365;DHT22;4722;49.340;9.800;2022-07-05T13:56:42;29.50;43.80
9365;DHT22;4722;49.340;9.800;2022-07-05T13:59:10;28.30;44.30
9365;DHT22;4722;49.340;9.800;2022-07-05T14:01:35;28.40;44.90
9365;DHT22;4722;49.340;9.800;2022-07-05T14:04:01;27.50;47.00
9365;DHT22;4722;49.340;9.800;2022-07-05T14:06:30;27.60;45.50
9365;DHT22;4722;49.340;9.800;2022-07-05T14:08:55;27.50;45.70
9365;DHT22;4722;49.340;9.800;2022-07-05T14:11:21;27.80;46.80
9365;DHT22;4722;49.340;9.800;2022-07-05T14:13:47;28.00;45.90
9365;DHT22;4722;49.340;9.800;2022-07-05T14:16:12;28.70;44.50
9365;DHT22;4722;49.340;9.800;2022-07-05T14:18:37;29.30;44.10
9365;DHT22;4722;49.340;9.800;2022-07-05T14:21:03;29.20;42.20
9365;DHT22;4722;49.340;9.800;2022-07-05T14:23:28;28.60;44.40
9365;DHT22;4722;49.340;9.800;2022-07-05T14:25:54;27.70;45.10
9365;DHT22;4722;49.340;9.800;2022-07-05T14:28:19;27.40;44.60
9365;DHT22;4722;49.340;9.800;2022-07-05T14:30:45;27.50;45.10
9365;DHT22;4722;49.340;9.800;2022-07-05T14:33:12;27.20;45.90
9365;DHT22;4722;49.340;9.800;2022-07-05T14:38:04;26.90;46.20
9365;DHT22;4722;49.340;9.800;2022-07-05T14:40:29;26.60;47.40
9365;DHT22;4722;49.340;9.800;2022-07-05T14:42:56;27.00;46.70
9365;DHT22;4722;49.340;9.800;2022-07-05T14:45:21;28.20;45.00
9365;DHT22;4722;49.340;9.800;2022-07-05T14:47:47;27.50;43.20
9365;DHT22;4722;49.340;9.800;2022-07-05T14:50:14;28.10;44.70
9365;DHT22;4722;49.340;9.800;2022-07-05T14:52:40;27.20;43.10
9365;DHT22;4722;49.340;9.800;2022-07-05T14:55:05;27.00;43.60
9365;DHT22;4722;49.340;9.800;2022-07-05T14:57:31;26.90;44.30
9365;DHT22;4722;49.340;9.800;2022-07-05T14:59:56;26.90;44.80
9365;DHT22;4722;49.340;9.800;2022-07-05T15:02:22;27.10;45.70
9365;DHT22;4722;49.340;9.800;2022-07-05T15:04:47;27.10;46.60
9365;DHT22;4722;49.340;9.800;2022-07-05T15:07:14;27.30;45.50
9365;DHT22;4722;49.340;9.800;2022-07-05T15:09:40;27.70;44.00
9365;DHT22;4722;49.340;9.800;2022-07-05T15:14:31;27.70;43.40
9365;DHT22;4722;49.340;9.800;2022-07-05T15:16:57;27.70;44.20
9365;DHT22;4722;49.340;9.800;2022-07-05T15:19:22;27.10;43.70
9365;DHT22;4722;49.340;9.800;2022-07-05T15:21:48;27.20;42.20
9365;DHT22;4722;49.340;9.800;2022-07-05T15:24:14;27.20;45.40
9365;DHT22;4722;49.340;9.800;2022-07-05T15:26:40;28.30;44.70
9365;DHT22;4722;49.340;9.800;2022-07-05T15:29:06;27.70;44.60
9365;DHT22;4722;49.340;9.800;2022-07-05T15:31:32;27.50;42.50
9365;DHT22;4722;49.340;9.800;2022-07-05T15:33:58;27.20;42.90
9365;DHT22;4722;49.340;9.800;2022-07-05T15:36:24;27.50;43.40
9365;DHT22;4722;49.340;9.800;2022-07-05T15:38:54;27.00;42.10
9365;DHT22;4722;49.340;9.800;2022-07-05T15:41:19;27.20;42.40
9365;DHT22;4722;49.340;9.800;2022-07-05T15:43:45;27.60;43.60
9365;DHT22;4722;49.340;9.800;2022-07-05T15:46:11;28.30;45.30
9365;DHT22;4722;49.340;9.800;2022-07-05T15:48:36;28.30;43.00
9365;DHT22;4722;49.340;9.800;2022-07-05T15:51:02;27.40;41.80
9365;DHT22;4722;49.340;9.800;2022-07-05T15:53:32;27.40;41.80
9365;DHT22;4722;49.340;9.800;2022-07-05T15:55:58;27.20;42.90
9365;DHT22;4722;49.340;9.800;2022-07-05T15:58:28;27.30;40.70
9365;DHT22;4722;49.340;9.800;2022-07-05T16:03:19;27.50;43.10
9365;DHT22;4722;49.340;9.800;2022-07-05T16:05:45;28.30;42.70
9365;DHT22;4722;49.340;9.800;2022-07-05T16:08:10;27.40;43.20
9365;DHT22;4722;49.340;9.800;2022-07-05T16:10:36;27.40;43.10
9365;DHT22;4722;49.340;9.800;2022-07-05T16:13:02;27.60;41.50
9365;DHT22;4722;49.340;9.800;2022-07-05T16:15:28;28.50;42.10
9365;DHT22;4722;49.340;9.800;2022-07-05T16:18:12;27.60;42.20
9365;DHT22;4722;49.340;9.800;2022-07-05T16:20:40;27.60;40.70
9365;DHT22;4722;49.340;9.800;2022-07-05T16:23:05;27.70;40.90
9365;DHT22;4722;49.340;9.800;2022-07-05T16:25:31;27.30;41.40
9365;DHT22;4722;49.340;9.800;2022-07-05T16:27:56;27.40;41.40
9365;DHT22;4722;49.340;9.800;2022-07-05T16:30:22;27.20;42.30
9365;DHT22;4722;49.340;9.800;2022-07-05T16:32:47;27.10;42.00
9365;DHT22;4722;49.340;9.800;2022-07-05T16:35:12;27.10;42.00
9365;DHT22;4722;49.340;9.800;2022-07-05T16:37:38;27.10;42.00
9365;DHT22;4722;49.340;9.800;2022-07-05T16:40:04;27.10;41.30
9365;DHT22;4722;49.340;9.800;2022-07-05T16:42:29;27.00;40.20
9365;DHT22;4722;49.340;9.800;2022-07-05T16:47:20;26.80;41.30
9365;DHT22;4722;49.340;9.800;2022-07-05T16:49:50;26.60;42.50
9365;DHT22;4722;49.340;9.800;2022-07-05T16:52:15;26.70;41.30
9365;DHT22;4722;49.340;9.800;2022-07-05T16:54:41;26.70;42.80
9365;DHT22;4722;49.340;9.800;2022-07-05T16:57:06;26.70;43.70
9365;DHT22;4722;49.340;9.800;2022-07-05T17:04:23;26.30;44.60
9365;DHT22;4722;49.340;9.800;2022-07-05T17:06:49;26.60;45.50
9365;DHT22;4722;49.340;9.800;2022-07-05T17:11:40;26.20;46.30
9365;DHT22;4722;49.340;9.800;2022-07-05T17:14:06;26.00;46.20
9365;DHT22;4722;49.340;9.800;2022-07-05T17:16:31;25.90;46.90
9365;DHT22;4722;49.340;9.800;2022-07-05T17:18:57;25.70;47.10
9365;DHT22;4722;49.340;9.800;2022-07-05T17:21:23;25.80;48.20
9365;DHT22;4722;49.340;9.800;2022-07-05T17:23:49;25.10;47.40
9365;DHT22;4722;49.340;9.800;2022-07-05T17:26:15;25.70;48.60
9365;DHT22;4722;49.340;9.800;2022-07-05T17:28:44;25.90;48.00
9365;DHT22;4722;49.340;9.800;2022-07-05T17:31:10;25.90;48.20
9365;DHT22;4722;49.340;9.800;2022-07-05T17:33:37;25.90;49.10
9365;DHT22;4722;49.340;9.800;2022-07-05T17:36:03;25.90;49.40
9365;DHT22;4722;49.340;9.800;2022-07-05T17:40:54;25.90;50.60
9365;DHT22;4722;49.340;9.800;2022-07-05T17:43:20;26.00;50.90
9365;DHT22;4722;49.340;9.800;2022-07-05T17:45:45;25.50;50.10
9365;DHT22;4722;49.340;9.800;2022-07-05T17:48:11;29.90;49.40
9365;DHT22;4722;49.340;9.800;2022-07-05T17:50:36;25.80;48.20
9365;DHT22;4722;49.340;9.800;2022-07-05T17:55:28;25.70;49.40
9365;DHT22;4722;49.340;9.800;2022-07-05T17:57:53;25.60;49.50
9365;DHT22;4722;49.340;9.800;2022-07-05T18:17:21;24.70;51.50
9365;DHT22;4722;49.340;9.800;2022-07-05T18:22:12;24.60;52.30
9365;DHT22;4722;49.340;9.800;2022-07-05T18:24:38;23.30;53.20
9365;DHT22;4722;49.340;9.800;2022-07-05T18:27:03;23.20;54.10
9365;DHT22;4722;49.340;9.800;2022-07-05T18:31:54;23.00;54.70
9365;DHT22;4722;49.340;9.800;2022-07-05T18:34:20;22.90;55.00
9365;DHT22;4722;49.340;9.800;2022-07-05T18:44:03;22.50;58.50
9365;DHT22;4722;49.340;9.800;2022-07-05T18:48:55;22.20;58.40
9365;DHT22;4722;49.340;9.800;2022-07-05T18:53:46;22.60;60.00
9365;DHT22;4722;49.340;9.800;2022-07-05T18:58:38;22.00;62.10
9365;DHT22;4722;49.340;9.800;2022-07-05T19:05:55;21.90;69.60
9365;DHT22;4722;49.340;9.800;2022-07-05T19:14:08;21.20;72.80
9365;DHT22;4722;49.340;9.800;2022-07-05T19:21:26;20.80;75.10
9365;DHT22;4722;49.340;9.800;2022-07-05T19:26:18;20.90;74.50
9365;DHT22;4722;49.340;9.800;2022-07-05T19:36:01;20.40;78.70
9365;DHT22;4722;49.340;9.800;2022-07-05T19:50:36;20.00;81.10
9365;DHT22;4722;49.340;9.800;2022-07-05T19:53:02;19.70;83.80
9365;DHT22;4722;49.340;9.800;2022-07-05T19:57:53;19.10;85.90
9365;DHT22;4722;49.340;9.800;2022-07-05T20:00:19;18.60;85.80
9365;DHT22;4722;49.340;9.800;2022-07-05T20:07:36;18.70;87.80
9365;DHT22;4722;49.340;9.800;2022-07-05T20:10:01;18.30;90.00
9365;DHT22;4722;49.340;9.800;2022-07-05T20:22:11;18.50;83.80
9365;DHT22;4722;49.340;9.800;2022-07-05T20:31:54;18.60;90.30
9365;DHT22;4722;49.340;9.800;2022-07-05T20:39:12;17.90;90.50
9365;DHT22;4722;49.340;9.800;2022-07-05T20:41:40;17.80;92.50
9365;DHT22;4722;49.340;9.800;2022-07-05T20:51:23;17.60;99.30
9365;DHT22;4722;49.340;9.800;2022-07-05T20:53:49;17.40;99.90
9365;DHT22;4722;49.340;9.800;2022-07-05T20:56:17;17.30;99.90
9365;DHT22;4722;49.340;9.800;2022-07-05T20:58:43;17.40;99.90
9365;DHT22;4722;49.340;9.800;2022-07-05T21:01:08;17.30;99.90
9365;DHT22;4722;49.340;9.800;2022-07-05T21:03:33;17.00;99.90
9365;DHT22;4722;49.340;9.800;2022-07-05T21:18:08;16.00;99.90
9365;DHT22;4722;49.340;9.800;2022-07-05T21:25:27;16.90;99.90
9365;DHT22;4722;49.340;9.800;2022-07-05T21:47:20;15.60;99.90
9365;DHT22;4722;49.340;9.800;2022-07-05T22:04:58;15.50;99.90
9365;DHT22;4722;49.340;9.800;2022-07-05T22:12:16;15.20;99.90
9365;DHT22;4722;49.340;9.800;2022-07-05T22:26:51;15.50;99.90
9365;DHT22;4722;49.340;9.800;2022-07-05T22:31:43;14.80;99.90
9365;DHT22;4722;49.340;9.800;2022-07-05T23:13:03;14.50;99.90
9365;DHT22;4722;49.340;9.800;2022-07-05T23:51:59;14.20;99.90
